sensor_id;sensor_type;location;lat;lon;timestamp;P1;durP1;ratioP1;P2;durP2;ratioP2
79284;SDS011;68734;50.452;11.636;2023-04-24T11:33:27;1.48;;;0.93;;
79284;SDS011;68734;50.452;11.636;2023-04-24T11:35:52;1.17;;;0.90;;
79284;SDS011;68734;50.452;11.636;2023-04-24T11:38:18;2.35;;;1.30;;
79284;SDS011;68734;50.452;11.636;2023-04-24T11:40:44;3.00;;;1.10;;
79284;SDS011;68734;50.452;11.636;2023-04-24T11:43:10;2.20;;;0.90;;
79284;SDS011;68734;50.452;11.636;2023-04-24T11:45:36;2.03;;;1.00;;
79284;SDS011;68734;50.452;11.636;2023-04-24T11:48:02;1.52;;;1.00;;
79284;SDS011;68734;50.452;11.636;2023-04-24T11:50:28;1.50;;;1.00;;
79284;SDS011;68734;50.452;11.636;2023-04-24T11:52:56;0.80;;;0.75;;
79284;SDS011;68734;50.452;11.636;2023-04-24T11:57:53;1.05;;;0.80;;
79284;SDS011;68734;50.452;11.636;2023-04-24T12:00:25;2.13;;;0.88;;
79284;SDS011;68734;50.452;11.636;2023-04-24T12:02:51;2.30;;;0.85;;
79284;SDS011;68734;50.452;11.636;2023-04-24T12:07:46;1.55;;;0.60;;
79284;SDS011;68734;50.452;11.636;2023-04-24T12:10:11;1.30;;;0.80;;
79284;SDS011;68734;50.452;11.636;2023-04-24T12:12:37;1.30;;;0.80;;
79284;SDS011;68734;50.452;11.636;2023-04-24T12:15:07;1.38;;;0.88;;
79284;SDS011;68734;50.452;11.636;2023-04-24T12:17:33;1.25;;;0.80;;
79284;SDS011;68734;50.452;11.636;2023-04-24T12:20:03;0.98;;;0.70;;
79284;SDS011;68734;50.452;11.636;2023-04-24T12:25:19;1.60;;;0.73;;
79284;SDS011;68734;50.452;11.636;2023-04-24T12:27:46;2.63;;;0.98;;
79284;SDS011;68734;50.452;11.636;2023-04-24T12:30:16;1.20;;;0.80;;
79284;SDS011;68734;50.452;11.636;2023-04-24T12:32:46;1.52;;;0.90;;
79284;SDS011;68734;50.452;11.636;2023-04-24T12:35:13;1.58;;;0.88;;
79284;SDS011;68734;50.452;11.636;2023-04-24T12:37:44;1.98;;;1.10;;
79284;SDS011;68734;50.452;11.636;2023-04-24T12:40:10;1.52;;;1.02;;
79284;SDS011;68734;50.452;11.636;2023-04-24T12:42:42;1.85;;;0.77;;
79284;SDS011;68734;50.452;11.636;2023-04-24T12:48:30;1.98;;;1.00;;
79284;SDS011;68734;50.452;11.636;2023-04-24T12:50:59;4.43;;;1.80;;
79284;SDS011;68734;50.452;11.636;2023-04-24T12:53:28;2.80;;;1.60;;
79284;SDS011;68734;50.452;11.636;2023-04-24T12:55:56;1.30;;;0.80;;
79284;SDS011;68734;50.452;11.636;2023-04-24T12:58:24;1.52;;;0.93;;
79284;SDS011;68734;50.452;11.636;2023-04-24T13:04:13;2.45;;;0.88;;
79284;SDS011;68734;50.452;11.636;2023-04-24T13:06:39;1.77;;;1.17;;
79284;SDS011;68734;50.452;11.636;2023-04-24T13:09:04;1.40;;;0.80;;
79284;SDS011;68734;50.452;11.636;2023-04-24T13:11:30;2.65;;;1.00;;
79284;SDS011;68734;50.452;11.636;2023-04-24T13:13:55;1.52;;;0.90;;
79284;SDS011;68734;50.452;11.636;2023-04-24T13:16:21;1.75;;;0.82;;
79284;SDS011;68734;50.452;11.636;2023-04-24T13:18:48;1.60;;;0.90;;
79284;SDS011;68734;50.452;11.636;2023-04-24T13:21:13;0.82;;;0.75;;
79284;SDS011;68734;50.452;11.636;2023-04-24T13:23:38;1.25;;;0.80;;
79284;SDS011;68734;50.452;11.636;2023-04-24T13:26:04;1.25;;;0.90;;
79284;SDS011;68734;50.452;11.636;2023-04-24T13:28:32;1.10;;;0.80;;
79284;SDS011;68734;50.452;11.636;2023-04-24T13:30:58;2.15;;;0.80;;
79284;SDS011;68734;50.452;11.636;2023-04-24T13:33:23;1.30;;;0.80;;
79284;SDS011;68734;50.452;11.636;2023-04-24T13:35:49;1.58;;;0.73;;
79284;SDS011;68734;50.452;11.636;2023-04-24T13:38:15;1.20;;;0.80;;
79284;SDS011;68734;50.452;11.636;2023-04-24T13:40:43;0.75;;;0.52;;
79284;SDS011;68734;50.452;11.636;2023-04-24T13:43:08;1.52;;;0.70;;
79284;SDS011;68734;50.452;11.636;2023-04-24T13:45:34;1.10;;;0.70;;
79284;SDS011;68734;50.452;11.636;2023-04-24T13:48:00;0.88;;;0.60;;
79284;SDS011;68734;50.452;11.636;2023-04-24T13:50:26;0.73;;;0.65;;
79284;SDS011;68734;50.452;11.636;2023-04-24T13:52:52;1.63;;;0.93;;
79284;SDS011;68734;50.452;11.636;2023-04-24T13:55:17;0.73;;;0.60;;
79284;SDS011;68734;50.452;11.636;2023-04-24T13:57:43;0.98;;;0.80;;
79284;SDS011;68734;50.452;11.636;2023-04-24T14:00:08;1.13;;;0.73;;
79284;SDS011;68734;50.452;11.636;2023-04-24T14:02:38;0.85;;;0.80;;
79284;SDS011;68734;50.452;11.636;2023-04-24T14:05:03;2.92;;;0.70;;
79284;SDS011;68734;50.452;11.636;2023-04-24T14:07:29;0.80;;;0.60;;
79284;SDS011;68734;50.452;11.636;2023-04-24T14:09:55;1.10;;;0.85;;
79284;SDS011;68734;50.452;11.636;2023-04-24T14:12:20;0.63;;;0.60;;
79284;SDS011;68734;50.452;11.636;2023-04-24T14:14:46;0.98;;;0.70;;
79284;SDS011;68734;50.452;11.636;2023-04-24T14:17:13;2.50;;;1.10;;
79284;SDS011;68734;50.452;11.636;2023-04-24T14:19:39;1.10;;;0.90;;
79284;SDS011;68734;50.452;11.636;2023-04-24T14:22:05;1.63;;;1.02;;
79284;SDS011;68734;50.452;11.636;2023-04-24T14:24:30;2.22;;;1.60;;
79284;SDS011;68734;50.452;11.636;2023-04-24T14:26:55;3.05;;;1.50;;
79284;SDS011;68734;50.452;11.636;2023-04-24T14:29:23;2.28;;;1.20;;
79284;SDS011;68734;50.452;11.636;2023-04-24T14:31:50;1.75;;;1.20;;
79284;SDS011;68734;50.452;11.636;2023-04-24T14:34:16;2.00;;;1.73;;
79284;SDS011;68734;50.452;11.636;2023-04-24T14:36:41;1.85;;;1.38;;
79284;SDS011;68734;50.452;11.636;2023-04-24T14:39:07;2.00;;;1.20;;
79284;SDS011;68734;50.452;11.636;2023-04-24T14:41:33;2.08;;;1.65;;
79284;SDS011;68734;50.452;11.636;2023-04-24T14:44:02;1.42;;;1.10;;
79284;SDS011;68734;50.452;11.636;2023-04-24T14:46:28;2.13;;;1.48;;
79284;SDS011;68734;50.452;11.636;2023-04-24T14:48:57;1.92;;;1.38;;
79284;SDS011;68734;50.452;11.636;2023-04-24T14:51:23;3.33;;;2.42;;
79284;SDS011;68734;50.452;11.636;2023-04-24T14:53:50;1.80;;;1.40;;
79284;SDS011;68734;50.452;11.636;2023-04-24T14:56:17;2.08;;;0.90;;
79284;SDS011;68734;50.452;11.636;2023-04-24T14:58:43;1.38;;;1.17;;
79284;SDS011;68734;50.452;11.636;2023-04-24T15:01:08;2.47;;;1.83;;
79284;SDS011;68734;50.452;11.636;2023-04-24T15:03:34;1.90;;;1.50;;
79284;SDS011;68734;50.452;11.636;2023-04-24T15:06:02;1.73;;;1.27;;
79284;SDS011;68734;50.452;11.636;2023-04-24T15:08:27;4.20;;;2.50;;
79284;SDS011;68734;50.452;11.636;2023-04-24T15:10:53;3.40;;;1.45;;
79284;SDS011;68734;50.452;11.636;2023-04-24T15:13:18;7.70;;;5.47;;
79284;SDS011;68734;50.452;11.636;2023-04-24T15:15:45;3.70;;;3.28;;
79284;SDS011;68734;50.452;11.636;2023-04-24T15:18:11;4.65;;;3.63;;
79284;SDS011;68734;50.452;11.636;2023-04-24T15:20:37;2.58;;;1.70;;
79284;SDS011;68734;50.452;11.636;2023-04-24T15:23:07;1.95;;;1.63;;
79284;SDS011;68734;50.452;11.636;2023-04-24T15:25:36;4.07;;;3.50;;
79284;SDS011;68734;50.452;11.636;2023-04-24T15:28:04;0.70;;;0.50;;
79284;SDS011;68734;50.452;11.636;2023-04-24T15:30:32;1.10;;;0.50;;
79284;SDS011;68734;50.452;11.636;2023-04-24T15:33:00;0.52;;;0.30;;
79284;SDS011;68734;50.452;11.636;2023-04-24T15:35:26;1.55;;;0.40;;
79284;SDS011;68734;50.452;11.636;2023-04-24T15:37:52;1.73;;;0.73;;
79284;SDS011;68734;50.452;11.636;2023-04-24T15:40:17;0.28;;;0.20;;
79284;SDS011;68734;50.452;11.636;2023-04-24T15:42:42;0.20;;;0.20;;
79284;SDS011;68734;50.452;11.636;2023-04-24T15:45:09;0.20;;;0.20;;
79284;SDS011;68734;50.452;11.636;2023-04-24T15:47:35;0.25;;;0.22;;
79284;SDS011;68734;50.452;11.636;2023-04-24T15:50:00;0.30;;;0.30;;
79284;SDS011;68734;50.452;11.636;2023-04-24T15:52:27;0.28;;;0.20;;
79284;SDS011;68734;50.452;11.636;2023-04-24T15:54:53;0.32;;;0.20;;
79284;SDS011;68734;50.452;11.636;2023-04-24T15:57:20;1.42;;;1.00;;
79284;SDS011;68734;50.452;11.636;2023-04-24T15:59:46;1.15;;;1.00;;
79284;SDS011;68734;50.452;11.636;2023-04-24T16:02:12;0.77;;;0.52;;
79284;SDS011;68734;50.452;11.636;2023-04-24T16:04:48;0.50;;;0.38;;
79284;SDS011;68734;50.452;11.636;2023-04-24T16:07:15;0.73;;;0.40;;
79284;SDS011;68734;50.452;11.636;2023-04-24T16:09:46;0.65;;;0.40;;
79284;SDS011;68734;50.452;11.636;2023-04-24T16:12:11;0.52;;;0.40;;
79284;SDS011;68734;50.452;11.636;2023-04-24T16:14:37;0.52;;;0.38;;
79284;SDS011;68734;50.452;11.636;2023-04-24T16:17:03;0.35;;;0.20;;
79284;SDS011;68734;50.452;11.636;2023-04-24T16:19:29;0.20;;;0.20;;
79284;SDS011;68734;50.452;11.636;2023-04-24T16:21:57;0.57;;;0.30;;
79284;SDS011;68734;50.452;11.636;2023-04-24T16:24:23;0.32;;;0.30;;
79284;SDS011;68734;50.452;11.636;2023-04-24T16:26:49;0.88;;;0.70;;
79284;SDS011;68734;50.452;11.636;2023-04-24T16:29:15;0.68;;;0.52;;
79284;SDS011;68734;50.452;11.636;2023-04-24T16:31:41;0.70;;;0.50;;
79284;SDS011;68734;50.452;11.636;2023-04-24T16:34:06;0.40;;;0.30;;
79284;SDS011;68734;50.452;11.636;2023-04-24T16:36:32;0.57;;;0.50;;
79284;SDS011;68734;50.452;11.636;2023-04-24T16:38:59;0.60;;;0.38;;
79284;SDS011;68734;50.452;11.636;2023-04-24T16:41:29;0.40;;;0.40;;
79284;SDS011;68734;50.452;11.636;2023-04-24T16:43:57;0.88;;;0.50;;
79284;SDS011;68734;50.452;11.636;2023-04-24T16:46:25;1.67;;;0.90;;
79284;SDS011;68734;50.452;11.636;2023-04-24T16:48:51;0.65;;;0.47;;
79284;SDS011;68734;50.452;11.636;2023-04-24T16:51:16;0.95;;;0.43;;
79284;SDS011;68734;50.452;11.636;2023-04-24T16:53:42;0.57;;;0.40;;
79284;SDS011;68734;50.452;11.636;2023-04-24T16:56:07;0.68;;;0.60;;
79284;SDS011;68734;50.452;11.636;2023-04-24T16:58:33;0.90;;;0.60;;
79284;SDS011;68734;50.452;11.636;2023-04-24T17:00:59;0.98;;;0.65;;
79284;SDS011;68734;50.452;11.636;2023-04-24T17:03:24;4.78;;;2.80;;
79284;SDS011;68734;50.452;11.636;2023-04-24T17:05:50;1.05;;;0.80;;
79284;SDS011;68734;50.452;11.636;2023-04-24T17:08:16;1.65;;;0.93;;
79284;SDS011;68734;50.452;11.636;2023-04-24T17:10:44;1.40;;;1.00;;
79284;SDS011;68734;50.452;11.636;2023-04-24T17:13:12;1.38;;;0.85;;
79284;SDS011;68734;50.452;11.636;2023-04-24T17:15:41;0.65;;;0.45;;
79284;SDS011;68734;50.452;11.636;2023-04-24T17:18:06;0.77;;;0.55;;
79284;SDS011;68734;50.452;11.636;2023-04-24T17:20:31;1.30;;;0.80;;
79284;SDS011;68734;50.452;11.636;2023-04-24T17:22:59;1.50;;;1.00;;
79284;SDS011;68734;50.452;11.636;2023-04-24T17:25:25;2.00;;;0.98;;
79284;SDS011;68734;50.452;11.636;2023-04-24T17:27:51;2.63;;;1.60;;
79284;SDS011;68734;50.452;11.636;2023-04-24T17:30:16;1.17;;;0.75;;
79284;SDS011;68734;50.452;11.636;2023-04-24T17:32:44;1.52;;;0.73;;
79284;SDS011;68734;50.452;11.636;2023-04-24T17:35:12;2.60;;;1.48;;
79284;SDS011;68734;50.452;11.636;2023-04-24T17:37:37;2.22;;;0.95;;
79284;SDS011;68734;50.452;11.636;2023-04-24T17:40:03;1.20;;;0.70;;
79284;SDS011;68734;50.452;11.636;2023-04-24T17:42:32;5.50;;;3.50;;
79284;SDS011;68734;50.452;11.636;2023-04-24T17:44:57;2.85;;;1.77;;
79284;SDS011;68734;50.452;11.636;2023-04-24T17:47:25;1.63;;;1.02;;
79284;SDS011;68734;50.452;11.636;2023-04-24T17:49:51;1.10;;;0.82;;
79284;SDS011;68734;50.452;11.636;2023-04-24T17:52:16;2.92;;;1.40;;
79284;SDS011;68734;50.452;11.636;2023-04-24T17:54:42;2.35;;;1.20;;
79284;SDS011;68734;50.452;11.636;2023-04-24T17:57:07;1.55;;;1.00;;
79284;SDS011;68734;50.452;11.636;2023-04-24T17:59:33;2.05;;;1.58;;
79284;SDS011;68734;50.452;11.636;2023-04-24T18:01:59;1.98;;;1.27;;
79284;SDS011;68734;50.452;11.636;2023-04-24T18:04:24;1.63;;;1.17;;
79284;SDS011;68734;50.452;11.636;2023-04-24T18:06:50;1.63;;;1.33;;
79284;SDS011;68734;50.452;11.636;2023-04-24T18:09:15;2.08;;;1.25;;
79284;SDS011;68734;50.452;11.636;2023-04-24T18:11:43;3.00;;;1.25;;
79284;SDS011;68734;50.452;11.636;2023-04-24T18:14:10;1.38;;;1.00;;
79284;SDS011;68734;50.452;11.636;2023-04-24T18:16:38;3.03;;;1.48;;
79284;SDS011;68734;50.452;11.636;2023-04-24T18:19:03;1.67;;;1.08;;
79284;SDS011;68734;50.452;11.636;2023-04-24T18:21:31;1.50;;;1.00;;
79284;SDS011;68734;50.452;11.636;2023-04-24T18:23:56;1.35;;;0.88;;
79284;SDS011;68734;50.452;11.636;2023-04-24T18:26:27;1.30;;;1.02;;
79284;SDS011;68734;50.452;11.636;2023-04-24T18:28:55;2.13;;;1.48;;
79284;SDS011;68734;50.452;11.636;2023-04-24T18:31:22;2.08;;;1.27;;
79284;SDS011;68734;50.452;11.636;2023-04-24T18:33:48;1.92;;;1.20;;
79284;SDS011;68734;50.452;11.636;2023-04-24T18:36:13;1.48;;;1.00;;
79284;SDS011;68734;50.452;11.636;2023-04-24T18:38:39;1.70;;;0.98;;
79284;SDS011;68734;50.452;11.636;2023-04-24T18:41:04;3.15;;;1.25;;
79284;SDS011;68734;50.452;11.636;2023-04-24T18:43:30;2.03;;;1.25;;
79284;SDS011;68734;50.452;11.636;2023-04-24T18:45:55;2.08;;;1.30;;
79284;SDS011;68734;50.452;11.636;2023-04-24T18:48:20;3.25;;;1.23;;
79284;SDS011;68734;50.452;11.636;2023-04-24T18:50:46;3.40;;;1.30;;
79284;SDS011;68734;50.452;11.636;2023-04-24T18:53:11;1.63;;;1.17;;
79284;SDS011;68734;50.452;11.636;2023-04-24T18:55:39;2.13;;;1.42;;
79284;SDS011;68734;50.452;11.636;2023-04-24T18:58:05;2.67;;;1.50;;
79284;SDS011;68734;50.452;11.636;2023-04-24T19:00:30;1.23;;;1.10;;
79284;SDS011;68734;50.452;11.636;2023-04-24T19:02:56;2.20;;;1.63;;
79284;SDS011;68734;50.452;11.636;2023-04-24T19:05:21;2.10;;;1.50;;
79284;SDS011;68734;50.452;11.636;2023-04-24T19:07:47;2.83;;;1.67;;
79284;SDS011;68734;50.452;11.636;2023-04-24T19:10:12;3.13;;;1.70;;
79284;SDS011;68734;50.452;11.636;2023-04-24T19:12:38;4.03;;;2.08;;
79284;SDS011;68734;50.452;11.636;2023-04-24T19:15:08;3.03;;;1.88;;
79284;SDS011;68734;50.452;11.636;2023-04-24T19:17:39;2.80;;;1.70;;
79284;SDS011;68734;50.452;11.636;2023-04-24T19:20:04;3.85;;;1.90;;
79284;SDS011;68734;50.452;11.636;2023-04-24T19:22:30;2.53;;;1.80;;
79284;SDS011;68734;50.452;11.636;2023-04-24T19:24:56;2.28;;;1.80;;
79284;SDS011;68734;50.452;11.636;2023-04-24T19:27:23;2.83;;;2.13;;
79284;SDS011;68734;50.452;11.636;2023-04-24T19:29:48;2.63;;;1.88;;
79284;SDS011;68734;50.452;11.636;2023-04-24T19:32:16;3.50;;;2.00;;
79284;SDS011;68734;50.452;11.636;2023-04-24T19:34:41;2.03;;;1.63;;
79284;SDS011;68734;50.452;11.636;2023-04-24T19:37:09;2.33;;;1.80;;
79284;SDS011;68734;50.452;11.636;2023-04-24T19:39:34;2.38;;;1.73;;
79284;SDS011;68734;50.452;11.636;2023-04-24T19:42:00;2.80;;;1.90;;
79284;SDS011;68734;50.452;11.636;2023-04-24T19:44:26;3.75;;;1.90;;
79284;SDS011;68734;50.452;11.636;2023-04-24T19:46:52;3.50;;;2.13;;
79284;SDS011;68734;50.452;11.636;2023-04-24T19:49:17;2.90;;;2.00;;
79284;SDS011;68734;50.452;11.636;2023-04-24T19:51:43;2.90;;;2.10;;
79284;SDS011;68734;50.452;11.636;2023-04-24T19:54:08;2.90;;;2.20;;
79284;SDS011;68734;50.452;11.636;2023-04-24T19:56:36;3.67;;;2.10;;
79284;SDS011;68734;50.452;11.636;2023-04-24T19:59:01;3.03;;;1.80;;
79284;SDS011;68734;50.452;11.636;2023-04-24T20:01:28;3.03;;;2.17;;
79284;SDS011;68734;50.452;11.636;2023-04-24T20:03:53;3.20;;;2.08;;
79284;SDS011;68734;50.452;11.636;2023-04-24T20:06:19;2.83;;;2.03;;
79284;SDS011;68734;50.452;11.636;2023-04-24T20:08:44;4.30;;;2.08;;
79284;SDS011;68734;50.452;11.636;2023-04-24T20:11:10;3.40;;;2.70;;
79284;SDS011;68734;50.452;11.636;2023-04-24T20:13:35;3.17;;;2.28;;
79284;SDS011;68734;50.452;11.636;2023-04-24T20:16:01;3.90;;;2.10;;
79284;SDS011;68734;50.452;11.636;2023-04-24T20:18:26;3.05;;;2.17;;
79284;SDS011;68734;50.452;11.636;2023-04-24T20:20:54;2.92;;;2.10;;
79284;SDS011;68734;50.452;11.636;2023-04-24T20:23:22;4.43;;;2.53;;
79284;SDS011;68734;50.452;11.636;2023-04-24T20:25:47;4.53;;;2.70;;
79284;SDS011;68734;50.452;11.636;2023-04-24T20:28:13;3.72;;;2.35;;
79284;SDS011;68734;50.452;11.636;2023-04-24T20:30:39;4.45;;;2.80;;
79284;SDS011;68734;50.452;11.636;2023-04-24T20:33:04;3.90;;;2.53;;
79284;SDS011;68734;50.452;11.636;2023-04-24T20:35:30;4.45;;;2.65;;
79284;SDS011;68734;50.452;11.636;2023-04-24T20:37:55;4.03;;;2.35;;
79284;SDS011;68734;50.452;11.636;2023-04-24T20:40:21;4.88;;;2.50;;
79284;SDS011;68734;50.452;11.636;2023-04-24T20:42:47;4.70;;;2.50;;
79284;SDS011;68734;50.452;11.636;2023-04-24T20:45:15;4.10;;;2.97;;
79284;SDS011;68734;50.452;11.636;2023-04-24T20:47:42;4.20;;;2.53;;
79284;SDS011;68734;50.452;11.636;2023-04-24T20:50:07;4.13;;;2.78;;
79284;SDS011;68734;50.452;11.636;2023-04-24T20:52:33;4.22;;;2.50;;
79284;SDS011;68734;50.452;11.636;2023-04-24T20:55:01;6.00;;;2.65;;
79284;SDS011;68734;50.452;11.636;2023-04-24T20:57:28;3.65;;;2.60;;
79284;SDS011;68734;50.452;11.636;2023-04-24T20:59:53;3.53;;;2.40;;
79284;SDS011;68734;50.452;11.636;2023-04-24T21:02:21;4.60;;;2.67;;
79284;SDS011;68734;50.452;11.636;2023-04-24T21:04:47;6.63;;;2.97;;
79284;SDS011;68734;50.452;11.636;2023-04-24T21:07:12;4.13;;;2.50;;
79284;SDS011;68734;50.452;11.636;2023-04-24T21:09:39;6.03;;;2.92;;
79284;SDS011;68734;50.452;11.636;2023-04-24T21:12:04;6.45;;;2.80;;
79284;SDS011;68734;50.452;11.636;2023-04-24T21:14:30;5.57;;;2.55;;
79284;SDS011;68734;50.452;11.636;2023-04-24T21:16:57;4.68;;;2.85;;
79284;SDS011;68734;50.452;11.636;2023-04-24T21:19:26;4.07;;;2.67;;
79284;SDS011;68734;50.452;11.636;2023-04-24T21:21:53;4.47;;;3.35;;
79284;SDS011;68734;50.452;11.636;2023-04-24T21:24:19;4.32;;;2.97;;
79284;SDS011;68734;50.452;11.636;2023-04-24T21:26:46;5.47;;;3.17;;
79284;SDS011;68734;50.452;11.636;2023-04-24T21:29:16;5.63;;;3.72;;
79284;SDS011;68734;50.452;11.636;2023-04-24T21:31:41;4.20;;;2.45;;
79284;SDS011;68734;50.452;11.636;2023-04-24T21:34:07;6.13;;;3.28;;
79284;SDS011;68734;50.452;11.636;2023-04-24T21:36:35;5.35;;;3.38;;
79284;SDS011;68734;50.452;11.636;2023-04-24T21:39:00;4.13;;;3.38;;
79284;SDS011;68734;50.452;11.636;2023-04-24T21:41:25;5.90;;;3.38;;
79284;SDS011;68734;50.452;11.636;2023-04-24T21:43:51;4.93;;;3.08;;
79284;SDS011;68734;50.452;11.636;2023-04-24T21:46:17;4.10;;;3.03;;
79284;SDS011;68734;50.452;11.636;2023-04-24T21:48:42;5.45;;;3.40;;
79284;SDS011;68734;50.452;11.636;2023-04-24T21:51:08;5.28;;;3.05;;
79284;SDS011;68734;50.452;11.636;2023-04-24T21:53:33;5.22;;;3.40;;
79284;SDS011;68734;50.452;11.636;2023-04-24T21:55:59;6.22;;;3.10;;
79284;SDS011;68734;50.452;11.636;2023-04-24T21:58:24;4.93;;;3.08;;
79284;SDS011;68734;50.452;11.636;2023-04-24T22:00:50;6.13;;;3.30;;
79284;SDS011;68734;50.452;11.636;2023-04-24T22:03:16;4.07;;;2.95;;
79284;SDS011;68734;50.452;11.636;2023-04-24T22:05:41;3.67;;;2.90;;
79284;SDS011;68734;50.452;11.636;2023-04-24T22:08:07;4.00;;;2.90;;
79284;SDS011;68734;50.452;11.636;2023-04-24T22:10:32;5.60;;;3.13;;
79284;SDS011;68734;50.452;11.636;2023-04-24T22:12:58;5.32;;;3.40;;
79284;SDS011;68734;50.452;11.636;2023-04-24T22:15:23;5.50;;;3.05;;
79284;SDS011;68734;50.452;11.636;2023-04-24T22:17:49;6.18;;;3.28;;
79284;SDS011;68734;50.452;11.636;2023-04-24T22:20:16;4.75;;;2.65;;
79284;SDS011;68734;50.452;11.636;2023-04-24T22:22:46;4.25;;;2.83;;
79284;SDS011;68734;50.452;11.636;2023-04-24T22:25:14;4.75;;;3.15;;
79284;SDS011;68734;50.452;11.636;2023-04-24T22:27:41;5.22;;;3.47;;
79284;SDS011;68734;50.452;11.636;2023-04-24T22:30:07;4.78;;;3.05;;
79284;SDS011;68734;50.452;11.636;2023-04-24T22:32:34;4.93;;;3.33;;
79284;SDS011;68734;50.452;11.636;2023-04-24T22:35:00;5.43;;;3.55;;
79284;SDS011;68734;50.452;11.636;2023-04-24T22:37:25;5.88;;;3.58;;
79284;SDS011;68734;50.452;11.636;2023-04-24T22:39:53;5.85;;;3.58;;
79284;SDS011;68734;50.452;11.636;2023-04-24T22:42:19;5.53;;;3.95;;
79284;SDS011;68734;50.452;11.636;2023-04-24T22:44:45;6.55;;;3.67;;
79284;SDS011;68734;50.452;11.636;2023-04-24T22:47:10;7.38;;;4.28;;
79284;SDS011;68734;50.452;11.636;2023-04-24T22:49:36;4.22;;;3.10;;
79284;SDS011;68734;50.452;11.636;2023-04-24T22:52:01;6.60;;;3.50;;
79284;SDS011;68734;50.452;11.636;2023-04-24T22:54:30;5.35;;;3.85;;
79284;SDS011;68734;50.452;11.636;2023-04-24T22:56:57;5.70;;;3.42;;
79284;SDS011;68734;50.452;11.636;2023-04-24T22:59:26;5.38;;;3.70;;
79284;SDS011;68734;50.452;11.636;2023-04-24T23:01:54;6.82;;;4.30;;
79284;SDS011;68734;50.452;11.636;2023-04-24T23:04:20;5.88;;;3.92;;
79284;SDS011;68734;50.452;11.636;2023-04-24T23:06:45;7.88;;;3.88;;
79284;SDS011;68734;50.452;11.636;2023-04-24T23:09:11;7.05;;;3.63;;
79284;SDS011;68734;50.452;11.636;2023-04-24T23:11:36;7.40;;;3.63;;
79284;SDS011;68734;50.452;11.636;2023-04-24T23:14:02;4.88;;;3.78;;
79284;SDS011;68734;50.452;11.636;2023-04-24T23:16:28;9.23;;;4.05;;
79284;SDS011;68734;50.452;11.636;2023-04-24T23:18:55;5.45;;;4.00;;
79284;SDS011;68734;50.452;11.636;2023-04-24T23:21:20;5.72;;;4.40;;
79284;SDS011;68734;50.452;11.636;2023-04-24T23:23:48;6.93;;;4.55;;
79284;SDS011;68734;50.452;11.636;2023-04-24T23:26:14;7.07;;;4.32;;
79284;SDS011;68734;50.452;11.636;2023-04-24T23:28:40;6.03;;;3.70;;
79284;SDS011;68734;50.452;11.636;2023-04-24T23:31:08;5.13;;;3.38;;
79284;SDS011;68734;50.452;11.636;2023-04-24T23:33:33;6.85;;;4.20;;
79284;SDS011;68734;50.452;11.636;2023-04-24T23:35:59;7.68;;;4.07;;
79284;SDS011;68734;50.452;11.636;2023-04-24T23:38:24;6.72;;;3.80;;
79284;SDS011;68734;50.452;11.636;2023-04-24T23:40:50;5.50;;;4.38;;
79284;SDS011;68734;50.452;11.636;2023-04-24T23:43:16;8.55;;;4.60;;
79284;SDS011;68734;50.452;11.636;2023-04-24T23:45:41;6.22;;;4.00;;
79284;SDS011;68734;50.452;11.636;2023-04-24T23:48:09;6.05;;;4.55;;
79284;SDS011;68734;50.452;11.636;2023-04-24T23:50:34;6.15;;;4.15;;
79284;SDS011;68734;50.452;11.636;2023-04-24T23:53:00;7.40;;;4.45;;
79284;SDS011;68734;50.452;11.636;2023-04-24T23:55:26;6.50;;;4.07;;
79284;SDS011;68734;50.452;11.636;2023-04-24T23:57:51;6.57;;;4.07;;
